Time;durP1;ratioP1;P1;durP2;ratioP2;P2;SDS_P1;SDS_P2;PMS_P1;PMS_P2;Temp;Humidity;BMP_temperature;BMP_pressure;BME280_temperature;BME280_humidity;BME280_pressure;Samples;Min_cycle;Max_cycle;Signal;HPM_P1;HPM_P2
2021/04/25 00:00:44;;;;;;;8.40;5.53;;;;;;;5.76;54.89;102199.06;5020824;28;20226;-69
2021/04/25 00:03:10;;;;;;;15.47;5.60;;;;;;;5.98;54.55;102209.75;5020734;28;20545;-68
2021/04/25 00:05:35;;;;;;;11.63;6.33;;;;;;;5.95;54.45;102206.97;5021320;28;20491;-69
2021/04/25 00:08:00;;;;;;;8.27;5.80;;;;;;;5.72;55.27;102206.66;5020605;28;20175;-69
2021/04/25 00:10:26;;;;;;;8.67;5.60;;;;;;;5.76;54.93;102199.94;5020720;28;20175;-68
2021/04/25 00:12:51;;;;;;;9.07;4.73;;;;;;;5.54;55.80;102205.66;5021120;28;20171;-68
2021/04/25 00:15:20;;;;;;;6.70;4.63;;;;;;;5.76;55.15;102201.63;5020529;28;20536;-68
2021/04/25 00:17:45;;;;;;;7.03;5.40;;;;;;;5.66;55.23;102192.50;5019715;28;20182;-69
2021/04/25 00:20:11;;;;;;;9.60;5.83;;;;;;;5.98;54.46;102193.31;5020720;28;20405;-69
2021/04/25 00:22:36;;;;;;;7.23;4.70;;;;;;;5.46;55.55;102189.72;5019705;28;20166;-69
2021/04/25 00:25:03;;;;;;;7.53;5.37;;;;;;;5.67;55.19;102189.09;5020297;28;20929;-68
2021/04/25 00:27:28;;;;;;;8.50;5.40;;;;;;;5.81;55.33;102184.66;5020864;28;20213;-69
2021/04/25 00:29:54;;;;;;;6.80;5.23;;;;;;;5.74;54.79;102186.91;5003308;28;20695;-68
2021/04/25 00:32:19;;;;;;;6.50;4.93;;;;;;;5.85;54.42;102190.06;5020125;28;20190;-68
2021/04/25 00:34:44;;;;;;;7.97;4.77;;;;;;;5.76;54.94;102191.28;5020673;28;20186;-68
2021/04/25 00:37:10;;;;;;;6.60;5.00;;;;;;;5.70;54.99;102187.56;5020318;28;20185;-69
2021/04/25 00:39:36;;;;;;;8.83;4.97;;;;;;;5.65;54.92;102181.25;5020153;28;20179;-68
2021/04/25 00:42:01;;;;;;;12.03;5.30;;;;;;;5.80;54.15;102178.56;5020284;28;20171;-68
2021/04/25 00:44:26;;;;;;;8.47;5.43;;;;;;;5.61;55.07;102179.31;5020124;28;20189;-68
2021/04/25 00:46:51;;;;;;;8.13;4.93;;;;;;;5.46;55.34;102183.69;5019866;28;20206;-68
2021/04/25 00:49:17;;;;;;;9.17;5.67;;;;;;;5.51;54.79;102177.94;5020302;28;20177;-68
2021/04/25 00:51:42;;;;;;;6.00;4.47;;;;;;;5.54;54.43;102179.81;5019753;28;20186;-69
2021/04/25 00:54:08;;;;;;;5.07;4.53;;;;;;;5.71;54.46;102170.31;5002915;28;20202;-68
2021/04/25 00:56:33;;;;;;;6.83;4.80;;;;;;;5.81;53.98;102175.19;5020347;28;20427;-68
2021/04/25 00:58:59;;;;;;;8.57;4.70;;;;;;;5.59;54.39;102161.91;5002897;28;20462;-69
2021/04/25 01:01:26;;;;;;;8.60;5.40;;;;;;;5.30;55.30;102167.31;5002925;28;20517;-68
2021/04/25 01:03:53;;;;;;;8.13;5.30;;;;;;;5.14;55.55;102170.78;5021645;28;20195;-70
2021/04/25 01:06:18;;;;;;;6.80;4.70;;;;;;;5.23;55.85;102163.50;5021508;28;20481;-67
2021/04/25 01:08:43;;;;;;;5.73;4.10;;;;;;;5.29;55.33;102165.56;5019746;28;20819;-68
2021/04/25 01:11:09;;;;;;;6.30;4.47;;;;;;;5.23;55.52;102160.91;5019889;28;20216;-69
2021/04/25 01:13:34;;;;;;;8.13;4.60;;;;;;;5.29;55.77;102162.97;5019492;28;20229;-68
2021/04/25 01:15:59;;;;;;;6.63;4.60;;;;;;;5.41;54.55;102165.31;5002402;28;20273;-68
2021/04/25 01:18:25;;;;;;;8.43;4.27;;;;;;;5.26;54.96;102165.38;5020084;28;20236;-70
2021/04/25 01:20:58;;;;;;;9.40;4.70;;;;;;;5.63;53.98;102167.34;5019344;28;20179;-69
2021/04/25 01:23:23;;;;;;;9.77;4.87;;;;;;;5.63;54.11;102166.44;5019308;28;20170;-69
2021/04/25 01:25:48;;;;;;;7.40;5.43;;;;;;;5.34;55.28;102169.25;5019548;28;20445;-70
2021/04/25 01:28:14;;;;;;;10.13;5.07;;;;;;;5.38;54.21;102171.19;5019441;28;20193;-69
2021/04/25 01:30:39;;;;;;;6.00;4.37;;;;;;;5.59;54.04;102165.41;5019073;28;20440;-69
2021/04/25 01:33:04;;;;;;;13.60;5.10;;;;;;;5.28;55.21;102168.94;5019607;28;20260;-68
2021/04/25 01:35:30;;;;;;;8.63;4.93;;;;;;;5.43;54.67;102168.00;5019077;28;20175;-69
2021/04/25 01:37:57;;;;;;;5.50;4.60;;;;;;;5.18;54.88;102166.66;5018977;28;20259;-69
2021/04/25 01:40:27;;;;;;;6.87;4.60;;;;;;;5.26;54.65;102169.66;5019593;28;20726;-68
2021/04/25 01:42:56;;;;;;;9.47;4.90;;;;;;;5.37;54.98;102169.44;5019163;28;20685;-69
2021/04/25 01:45:22;;;;;;;5.93;4.70;;;;;;;5.35;55.04;102172.75;5001751;28;20500;-69
2021/04/25 01:47:50;;;;;;;6.77;4.00;;;;;;;5.38;54.78;102158.28;5019347;28;20561;-70
2021/04/25 01:50:17;;;;;;;7.47;4.40;;;;;;;5.43;55.05;102161.13;5018840;28;20273;-70
2021/04/25 01:52:42;;;;;;;8.20;4.90;;;;;;;5.38;54.55;102162.56;5018089;28;20432;-70
2021/04/25 01:55:08;;;;;;;7.60;4.53;;;;;;;5.50;54.49;102164.94;5019283;28;20414;-70
2021/04/25 01:57:34;;;;;;;7.50;4.03;;;;;;;5.32;55.22;102168.31;5018610;28;20412;-68
2021/04/25 02:00:01;;;;;;;7.40;4.60;;;;;;;5.19;54.66;102168.44;5018683;28;20418;-69
2021/04/25 02:02:27;;;;;;;11.10;4.27;;;;;;;5.29;55.31;102170.72;5018924;28;20710;-69
2021/04/25 02:04:52;;;;;;;8.93;4.87;;;;;;;5.25;55.26;102166.19;5018038;28;20422;-70
2021/04/25 02:07:17;;;;;;;7.07;4.90;;;;;;;5.24;55.59;102167.00;5018666;28;20465;-69
2021/04/25 02:09:43;;;;;;;6.27;4.43;;;;;;;5.06;55.06;102172.94;5018934;28;20171;-69
2021/04/25 02:12:08;;;;;;;10.43;5.10;;;;;;;5.08;55.48;102170.44;5018508;28;20241;-70
2021/04/25 02:14:34;;;;;;;7.20;4.43;;;;;;;5.34;54.61;102169.25;5018584;28;20178;-69
2021/04/25 02:16:59;;;;;;;5.23;4.10;;;;;;;5.19;54.93;102163.25;5018896;28;20529;-69
2021/04/25 02:19:24;;;;;;;5.67;4.50;;;;;;;5.38;54.62;102157.38;5018457;28;20401;-69
2021/04/25 02:21:49;;;;;;;8.97;4.97;;;;;;;5.39;54.28;102152.28;5018349;28;20190;-68
2021/04/25 02:24:15;;;;;;;6.60;4.43;;;;;;;5.28;54.33;102148.25;5018716;28;20238;-70
2021/04/25 02:26:40;;;;;;;12.00;4.50;;;;;;;5.09;54.26;102148.03;5018344;28;20227;-70
2021/04/25 02:29:06;;;;;;;5.27;4.27;;;;;;;5.49;53.96;102145.03;5018665;28;20178;-69
2021/04/25 02:31:31;;;;;;;6.97;3.77;;;;;;;5.49;54.52;102147.63;5018363;28;20591;-68
2021/04/25 02:33:56;;;;;;;7.67;4.07;;;;;;;5.62;53.74;102152.63;5018685;28;20551;-69
2021/04/25 02:36:22;;;;;;;9.37;4.23;;;;;;;5.50;53.85;102152.00;5018935;28;20201;-69
2021/04/25 02:38:47;;;;;;;7.93;4.33;;;;;;;5.40;54.70;102143.75;5018661;28;20257;-69
2021/04/25 02:41:13;;;;;;;4.97;4.30;;;;;;;5.63;53.63;102144.06;5018369;28;20455;-68
2021/04/25 02:43:38;;;;;;;6.57;4.60;;;;;;;5.57;53.96;102135.97;5018593;28;20171;-69
2021/04/25 02:46:03;;;;;;;7.37;4.67;;;;;;;5.53;53.74;102134.03;5017881;28;20500;-69
2021/04/25 02:48:29;;;;;;;6.03;4.80;;;;;;;5.45;54.36;102136.22;5018158;28;20175;-69
2021/04/25 02:50:54;;;;;;;10.63;4.23;;;;;;;5.40;54.44;102135.97;5018289;28;20552;-68
2021/04/25 02:53:19;;;;;;;8.47;4.73;;;;;;;5.48;54.68;102135.50;5018364;28;20181;-69
2021/04/25 02:55:45;;;;;;;10.90;5.50;;;;;;;5.38;53.96;102128.94;5018158;28;20461;-68
2021/04/25 02:58:10;;;;;;;6.20;4.50;;;;;;;5.46;53.51;102131.94;5018683;28;20185;-69
2021/04/25 03:00:36;;;;;;;9.73;5.03;;;;;;;5.27;54.51;102123.19;5019401;28;20190;-68
2021/04/25 03:03:01;;;;;;;9.60;4.23;;;;;;;5.46;54.52;102131.94;5020763;28;20158;-70
2021/04/25 03:05:27;;;;;;;5.67;4.67;;;;;;;5.60;53.35;102124.91;5023635;28;20175;-69
2021/04/25 03:07:53;;;;;;;4.57;3.70;;;;;;;5.40;53.52;102127.34;5022156;28;20222;-68
2021/04/25 03:10:19;;;;;;;12.70;4.80;;;;;;;5.46;53.96;102131.94;5021931;28;20425;-68
2021/04/25 03:12:45;;;;;;;10.30;4.23;;;;;;;5.36;54.82;102121.09;5022111;28;20175;-68
2021/04/25 03:15:12;;;;;;;7.77;4.30;;;;;;;5.40;54.40;102124.75;5021682;28;20421;-68
2021/04/25 03:17:38;;;;;;;5.83;4.03;;;;;;;5.42;54.52;102130.00;5021640;28;20736;-68
2021/04/25 03:20:05;;;;;;;6.50;4.43;;;;;;;5.55;54.17;102135.03;5022595;28;20402;-68
2021/04/25 03:22:31;;;;;;;6.33;4.30;;;;;;;5.21;54.57;102134.09;5021726;28;20178;-70
2021/04/25 03:24:56;;;;;;;5.73;3.60;;;;;;;5.11;54.84;102134.41;5021598;28;20469;-68
2021/04/25 03:27:22;;;;;;;7.90;4.37;;;;;;;5.08;55.62;102134.25;5021982;28;20548;-68
2021/04/25 03:29:47;;;;;;;4.90;3.80;;;;;;;5.20;54.51;102139.19;5021589;28;20232;-69
2021/04/25 03:32:12;;;;;;;8.20;4.10;;;;;;;5.32;54.33;102139.84;5021528;28;20175;-69
2021/04/25 03:34:38;;;;;;;11.00;4.20;;;;;;;5.18;55.61;102130.47;5022073;28;20167;-68
2021/04/25 03:37:04;;;;;;;9.07;4.13;;;;;;;5.18;55.13;102120.13;5021444;28;20194;-68
2021/04/25 03:39:29;;;;;;;5.47;4.40;;;;;;;5.03;55.82;102128.84;5021330;28;20235;-68
2021/04/25 03:41:54;;;;;;;10.20;4.20;;;;;;;5.35;54.29;102126.19;5004287;28;20843;-69
2021/04/25 03:44:20;;;;;;;9.07;4.00;;;;;;;5.28;55.04;102124.97;5021211;28;20536;-69
2021/04/25 03:46:45;;;;;;;7.87;4.77;;;;;;;5.18;54.86;102133.03;5021318;28;20206;-68
2021/04/25 03:49:10;;;;;;;15.83;8.90;;;;;;;5.15;55.33;102136.34;5022032;28;20575;-68
2021/04/25 03:51:36;;;;;;;7.77;4.13;;;;;;;4.98;55.47;102130.28;5021338;28;20549;-70
2021/04/25 03:54:01;;;;;;;4.70;3.50;;;;;;;5.20;55.58;102134.03;5021230;28;20171;-68
2021/04/25 03:56:27;;;;;;;10.50;4.50;;;;;;;5.05;55.77;102140.13;5021437;28;20551;-68
2021/04/25 03:58:52;;;;;;;9.13;4.93;;;;;;;5.02;55.74;102129.63;5021093;28;20433;-69
2021/04/25 04:01:18;;;;;;;6.60;4.70;;;;;;;5.06;56.13;102133.28;5021138;28;20269;-69
2021/04/25 04:03:43;;;;;;;6.07;4.30;;;;;;;4.97;56.93;102137.94;5021624;28;20186;-68
2021/04/25 04:06:08;;;;;;;5.57;4.00;;;;;;;4.74;56.92;102131.50;5021105;28;20474;-68
2021/04/25 04:08:34;;;;;;;9.97;5.73;;;;;;;5.11;56.09;102143.88;5020937;28;20190;-69
2021/04/25 04:10:59;;;;;;;10.33;4.80;;;;;;;5.14;56.28;102138.84;5020897;28;20175;-68
2021/04/25 04:13:24;;;;;;;4.73;4.30;;;;;;;5.06;55.66;102141.91;5020628;28;20210;-68
2021/04/25 04:15:50;;;;;;;7.87;4.23;;;;;;;5.37;55.32;102137.50;5019851;28;20178;-68
2021/04/25 04:18:15;;;;;;;7.77;4.80;;;;;;;5.21;55.74;102135.81;5021173;28;20442;-68
2021/04/25 04:20:40;;;;;;;8.17;4.50;;;;;;;5.18;56.49;102151.13;5020643;28;20591;-69
2021/04/25 04:23:06;;;;;;;11.63;4.57;;;;;;;4.73;56.92;102153.84;5020712;28;20254;-69
2021/04/25 04:25:31;;;;;;;8.37;5.10;;;;;;;4.79;56.86;102161.97;5020879;28;20606;-68
2021/04/25 04:27:57;;;;;;;10.90;4.23;;;;;;;4.93;56.21;102148.94;5020768;28;20594;-68
2021/04/25 04:30:22;;;;;;;9.73;4.30;;;;;;;5.21;55.44;102152.22;5003449;28;20175;-69
2021/04/25 04:32:48;;;;;;;6.67;4.40;;;;;;;5.03;56.47;102146.94;5021225;28;20171;-67
2021/04/25 04:35:13;;;;;;;7.90;4.53;;;;;;;5.17;56.11;102157.13;5020551;28;20213;-68
2021/04/25 04:37:38;;;;;;;7.77;4.40;;;;;;;5.98;53.64;102160.56;5020162;28;20224;-69
2021/04/25 04:40:04;;;;;;;5.17;4.33;;;;;;;6.14;52.14;102156.16;5020494;28;20171;-69
2021/04/25 04:42:30;;;;;;;8.87;4.17;;;;;;;6.89;50.48;102149.50;5020043;28;20175;-68
2021/04/25 04:44:55;;;;;;;9.50;4.27;;;;;;;6.71;50.58;102146.00;5020162;28;20838;-68
2021/04/25 04:47:20;;;;;;;6.33;3.90;;;;;;;6.43;51.31;102152.47;5020295;28;20199;-70
2021/04/25 04:49:46;;;;;;;10.40;3.97;;;;;;;5.68;53.51;102157.25;5020167;28;20255;-69
2021/04/25 04:52:11;;;;;;;6.37;4.50;;;;;;;5.38;54.68;102154.81;5019858;28;20175;-69
2021/04/25 04:54:36;;;;;;;6.30;4.70;;;;;;;5.63;54.08;102157.00;5020463;28;20175;-70
2021/04/25 04:57:02;;;;;;;8.77;4.10;;;;;;;5.65;54.39;102157.09;5019770;28;20186;-69
2021/04/25 04:59:27;;;;;;;9.70;4.80;;;;;;;5.56;54.62;102160.06;5019838;28;20206;-70
2021/04/25 05:01:52;;;;;;;6.17;4.27;;;;;;;5.90;53.25;102157.56;5021939;28;20236;-71
2021/04/25 05:04:18;;;;;;;6.23;4.27;;;;;;;5.44;54.91;102162.00;5019812;28;20506;-69
2021/04/25 05:06:43;;;;;;;8.63;4.40;;;;;;;4.94;57.05;102161.00;5019547;28;20213;-69
2021/04/25 05:09:08;;;;;;;7.07;5.37;;;;;;;5.23;55.80;102163.50;5020108;28;20440;-70
2021/04/25 05:11:34;;;;;;;7.63;4.90;;;;;;;5.53;54.69;102165.06;5019349;28;20201;-69
2021/04/25 05:13:59;;;;;;;9.57;4.30;;;;;;;5.34;55.46;102173.56;5019488;28;20166;-71
2021/04/25 05:16:24;;;;;;;7.10;4.70;;;;;;;4.88;56.14;102174.50;5019926;28;20171;-69
2021/04/25 05:18:49;;;;;;;5.50;4.57;;;;;;;5.31;55.89;102176.84;5019670;28;20265;-70
2021/04/25 05:21:15;;;;;;;6.97;5.10;;;;;;;5.53;54.65;102171.16;5019225;28;20183;-69
2021/04/25 05:23:40;;;;;;;10.30;5.23;;;;;;;5.39;55.89;102178.16;5020033;28;20643;-68
2021/04/25 05:26:05;;;;;;;6.73;5.10;;;;;;;5.98;54.01;102178.69;5019404;28;20471;-69
2021/04/25 05:28:31;;;;;;;5.60;4.67;;;;;;;5.55;55.79;102179.00;5019558;28;20435;-69
2021/04/25 05:30:58;;;;;;;5.57;4.60;;;;;;;5.85;54.42;102178.84;5019293;28;20417;-69
2021/04/25 05:33:23;;;;;;;9.20;5.17;;;;;;;6.05;53.13;102190.25;5019386;28;20257;-70
2021/04/25 05:35:49;;;;;;;8.00;4.43;;;;;;;7.13;50.77;102173.91;5019718;28;20434;-68
2021/04/25 05:38:14;;;;;;;8.90;4.43;;;;;;;7.57;49.37;102181.13;5019355;28;20183;-69
2021/04/25 05:40:40;;;;;;;7.90;4.83;;;;;;;7.67;48.82;102176.34;5019181;28;20238;-69
2021/04/25 05:43:05;;;;;;;8.13;4.57;;;;;;;6.75;51.66;102194.59;5019601;28;20175;-69
2021/04/25 05:45:30;;;;;;;8.13;5.20;;;;;;;6.27;53.02;102189.66;5018969;28;20246;-69
2021/04/25 05:47:57;;;;;;;9.73;4.80;;;;;;;6.15;53.79;102199.38;5018851;28;20203;-69
2021/04/25 05:50:24;;;;;;;7.83;4.80;;;;;;;6.08;53.79;102198.19;5019276;28;20191;-70
2021/04/25 05:52:50;;;;;;;9.90;5.03;;;;;;;5.97;54.45;102202.75;5018962;28;20426;-69
2021/04/25 05:55:15;;;;;;;8.07;4.73;;;;;;;6.46;52.77;102203.53;5018991;28;20764;-69
2021/04/25 05:57:41;;;;;;;4.97;4.47;;;;;;;7.34;50.62;102198.25;5019611;28;20421;-69
2021/04/25 06:00:09;;;;;;;4.80;4.20;;;;;;;7.61;49.67;102192.56;5018780;28;20167;-69
2021/04/25 06:02:34;;;;;;;5.60;4.30;;;;;;;8.48;47.28;102194.59;5018761;28;20557;-69
2021/04/25 06:05:00;;;;;;;5.80;4.93;;;;;;;8.40;47.22;102191.66;5019520;28;20421;-70
2021/04/25 06:07:25;;;;;;;5.90;4.43;;;;;;;8.18;48.53;102202.84;5018862;28;20294;-69
2021/04/25 06:09:51;;;;;;;4.90;4.10;;;;;;;9.08;45.01;102197.03;5018691;28;20186;-69
2021/04/25 06:12:16;;;;;;;9.20;4.50;;;;;;;10.56;42.67;102192.78;5019064;28;20163;-69
2021/04/25 06:14:42;;;;;;;6.00;4.30;;;;;;;9.36;43.85;102190.31;5018727;28;20552;-68
2021/04/25 06:17:07;;;;;;;9.13;4.67;;;;;;;8.30;46.07;102196.41;5018678;28;20249;-69
2021/04/25 06:19:32;;;;;;;8.40;4.90;;;;;;;9.12;44.83;102197.13;5019249;28;20523;-71
2021/04/25 06:21:57;;;;;;;7.77;4.60;;;;;;;9.62;43.29;102193.00;5019378;28;20171;-70
2021/04/25 06:24:23;;;;;;;7.17;4.20;;;;;;;9.50;42.72;102201.22;5018585;28;20231;-69
2021/04/25 06:26:48;;;;;;;6.73;4.17;;;;;;;10.67;40.11;102199.25;5018894;28;20210;-71
2021/04/25 06:29:13;;;;;;;4.43;3.93;;;;;;;10.47;41.29;102202.91;5018616;28;20182;-70
2021/04/25 06:31:39;;;;;;;5.53;3.90;;;;;;;12.13;36.97;102200.09;5018211;28;20178;-70
2021/04/25 06:34:04;;;;;;;5.57;4.20;;;;;;;14.03;33.20;102198.31;5019295;28;20493;-70
2021/04/25 06:36:29;;;;;;;6.13;4.20;;;;;;;13.90;33.18;102193.69;5018546;28;20202;-70
2021/04/25 06:38:55;;;;;;;5.50;4.20;;;;;;;14.59;31.48;102191.41;5017841;28;20182;-69
2021/04/25 06:41:20;;;;;;;7.50;4.47;;;;;;;15.24;30.93;102195.91;5018855;28;20225;-69
2021/04/25 06:43:45;;;;;;;4.83;4.33;;;;;;;15.47;29.80;102193.56;5018422;28;20217;-70
2021/04/25 06:46:11;;;;;;;5.63;4.27;;;;;;;15.59;29.17;102191.97;5018131;28;20210;-69
2021/04/25 06:48:36;;;;;;;6.73;4.27;;;;;;;15.36;29.53;102189.94;5018483;28;20407;-69
2021/04/25 06:51:01;;;;;;;6.07;4.30;;;;;;;15.77;29.59;102194.81;5017933;28;20175;-70
2021/04/25 06:53:27;;;;;;;6.77;3.80;;;;;;;15.56;29.59;102205.06;5018091;28;20209;-69
2021/04/25 06:55:52;;;;;;;7.00;4.13;;;;;;;17.16;27.10;102195.19;5018610;28;20189;-70
2021/04/25 06:58:17;;;;;;;8.80;3.97;;;;;;;16.52;27.38;102203.47;5019065;28;20186;-69
2021/04/25 07:00:43;;;;;;;8.53;4.03;;;;;;;16.95;26.84;102202.09;5018054;28;20536;-69
2021/04/25 07:03:08;;;;;;;5.03;4.63;;;;;;;16.98;27.12;102195.94;5018301;28;20548;-69
2021/04/25 07:05:33;;;;;;;5.70;3.97;;;;;;;17.14;26.57;102202.19;5017828;28;20261;-69
2021/04/25 07:07:59;;;;;;;5.13;4.27;;;;;;;18.10;24.72;102192.88;5017648;28;20206;-70
2021/04/25 07:10:25;;;;;;;5.07;4.57;;;;;;;16.87;25.75;102197.59;5018525;28;20171;-69
2021/04/25 07:12:50;;;;;;;4.47;4.03;;;;;;;17.53;24.91;102205.91;5017803;28;20171;-69
2021/04/25 07:15:16;;;;;;;7.60;5.13;;;;;;;18.40;23.87;102207.03;5017794;28;20420;-71
2021/04/25 07:17:41;;;;;;;6.90;3.77;;;;;;;18.10;23.81;102210.50;5018380;28;20428;-70
2021/04/25 07:20:08;;;;;;;5.40;3.70;;;;;;;18.11;23.88;102210.50;5017737;28;20203;-69
2021/04/25 07:22:34;;;;;;;4.57;3.33;;;;;;;17.94;23.77;102222.78;5017787;28;20474;-68
2021/04/25 07:25:00;;;;;;;4.20;3.57;;;;;;;18.88;22.70;102207.03;5017611;28;20469;-70
2021/04/25 07:27:25;;;;;;;5.60;4.50;;;;;;;19.22;22.89;102211.38;5017584;28;20532;-70
2021/04/25 07:29:51;;;;;;;4.67;3.70;;;;;;;18.18;23.55;102214.94;5001009;28;20175;-69
2021/04/25 07:32:16;;;;;;;4.33;3.50;;;;;;;19.48;22.23;102205.97;5017611;28;20179;-69
2021/04/25 07:34:42;;;;;;;3.50;3.20;;;;;;;19.17;21.72;102214.00;5017591;28;20171;-68
2021/04/25 07:37:08;;;;;;;3.27;2.97;;;;;;;18.32;22.79;102222.84;5018005;28;20556;-70
2021/04/25 07:39:34;;;;;;;4.37;3.43;;;;;;;19.62;21.00;102213.84;5017736;28;20171;-70
2021/04/25 07:42:00;;;;;;;3.53;3.23;;;;;;;19.84;20.65;102217.31;5017468;28;20495;-69
2021/04/25 07:44:26;;;;;;;3.37;2.60;;;;;;;17.00;24.04;102228.44;5000753;28;20414;-70
2021/04/25 07:46:51;;;;;;;6.10;4.37;;;;;;;20.40;20.67;102209.88;5000438;28;20459;-70
2021/04/25 07:49:17;;;;;;;3.63;3.20;;;;;;;19.72;20.77;102217.34;5017601;28;20177;-70
2021/04/25 07:51:42;;;;;;;4.33;3.20;;;;;;;20.56;20.04;102215.91;5020460;28;20186;-70
2021/04/25 07:54:07;;;;;;;3.30;3.00;;;;;;;16.05;24.82;102229.34;5021025;28;20175;-69
2021/04/25 07:56:33;;;;;;;4.53;3.90;;;;;;;17.99;22.37;102232.44;5021095;28;20476;-70
2021/04/25 07:58:58;;;;;;;3.40;3.10;;;;;;;20.25;19.75;102210.00;5021686;28;20174;-69
2021/04/25 08:01:26;;;;;;;6.17;4.80;;;;;;;19.78;20.19;102220.84;5020598;28;20179;-70
2021/04/25 08:03:52;;;;;;;3.47;3.17;;;;;;;20.04;19.81;102217.22;5022059;28;20178;-70
2021/04/25 08:06:17;;;;;;;5.10;3.70;;;;;;;19.86;21.59;102226.09;5022902;28;20463;-69
2021/04/25 08:08:42;;;;;;;4.10;3.10;;;;;;;20.11;21.09;102224.22;5021101;28;20182;-70
2021/04/25 08:11:08;;;;;;;4.57;3.57;;;;;;;16.43;24.61;102231.47;5020544;28;20203;-69
2021/04/25 08:13:33;;;;;;;3.50;2.67;;;;;;;17.27;23.78;102232.13;5020986;28;20198;-66
2021/04/25 08:15:59;;;;;;;4.37;3.10;;;;;;;17.10;23.75;102237.28;5019628;28;20179;-70
2021/04/25 08:18:24;;;;;;;2.80;2.50;;;;;;;15.57;25.49;102239.25;5020198;28;20179;-72
2021/04/25 08:20:49;;;;;;;6.93;3.10;;;;;;;19.83;19.21;102221.72;5020839;28;20498;-74
2021/04/25 08:23:15;;;;;;;6.23;5.63;;;;;;;20.72;18.49;102215.84;5020087;28;20265;-72
2021/04/25 08:25:40;;;;;;;3.97;3.10;;;;;;;20.78;19.44;102214.00;5020300;28;20293;-74
2021/04/25 08:28:05;;;;;;;3.47;3.13;;;;;;;19.25;19.62;102224.56;5020522;28;20230;-72
2021/04/25 08:30:31;;;;;;;4.70;3.83;;;;;;;20.48;18.00;102229.22;5020257;28;20175;-72
2021/04/25 08:32:56;;;;;;;3.50;2.90;;;;;;;21.26;17.76;102221.47;5020118;28;20210;-69
2021/04/25 08:35:21;;;;;;;3.90;2.60;;;;;;;19.77;19.08;102219.06;5003736;28;20174;-71
2021/04/25 08:37:47;;;;;;;4.87;2.87;;;;;;;19.59;19.56;102225.34;5020115;28;20174;-70
2021/04/25 08:40:13;;;;;;;2.93;2.47;;;;;;;15.42;23.30;102244.31;5019837;28;20250;-69
2021/04/25 08:42:38;;;;;;;6.27;4.60;;;;;;;18.34;20.57;102233.41;5020439;28;20167;-69
2021/04/25 08:45:04;;;;;;;4.97;3.03;;;;;;;18.21;17.58;102240.41;5020073;28;20434;-70
2021/04/25 08:47:30;;;;;;;3.50;2.67;;;;;;;19.10;17.69;102228.13;5019908;28;20233;-71
2021/04/25 08:50:03;;;;;;;4.67;3.80;;;;;;;17.23;21.53;102235.63;5020279;28;20743;-70
2021/04/25 08:52:30;;;;;;;2.97;2.67;;;;;;;12.87;25.90;102258.66;4983990;28;20701;-70
2021/04/25 08:54:55;;;;;;;3.10;2.70;;;;;;;13.62;26.12;102263.88;5000165;28;20470;-71
2021/04/25 08:57:22;;;;;;;3.27;2.97;;;;;;;13.73;23.75;102259.75;5002480;28;20377;-73
2021/04/25 08:59:47;;;;;;;3.60;3.30;;;;;;;14.52;23.72;102256.03;5000655;28;20171;-70
2021/04/25 09:02:12;;;;;;;3.30;3.00;;;;;;;14.53;23.41;102256.91;4999612;28;20459;-71
2021/04/25 09:04:38;;;;;;;5.50;4.57;;;;;;;14.85;23.94;102252.22;5000525;28;20416;-72
2021/04/25 09:07:13;;;;;;;3.73;3.33;;;;;;;15.19;23.63;102254.50;4999903;28;20208;-71
2021/04/25 09:09:44;;;;;;;6.07;3.43;;;;;;;16.22;20.74;102252.31;5000007;28;20179;-71
2021/04/25 09:12:12;;;;;;;3.80;3.40;;;;;;;17.33;19.81;102250.59;4999851;28;20824;-72
2021/04/25 09:14:39;;;;;;;3.30;3.00;;;;;;;17.65;18.65;102242.84;4999937;28;20698;-71
2021/04/25 09:17:06;;;;;;;3.40;2.87;;;;;;;16.96;20.39;102245.13;4999746;28;20843;-71
2021/04/25 09:19:49;;;;;;;3.20;2.60;;;;;;;13.58;24.20;102265.53;5000022;28;20481;-72
2021/04/25 09:22:15;;;;;;;3.47;2.70;;;;;;;15.19;21.63;102254.50;4999617;28;20414;-70
2021/04/25 09:24:41;;;;;;;2.70;2.50;;;;;;;12.60;23.32;102272.81;5004284;28;20472;-72
2021/04/25 09:27:06;;;;;;;3.43;2.50;;;;;;;16.79;19.59;102244.94;5019096;28;20598;-71
2021/04/25 09:29:50;;;;;;;3.13;2.73;;;;;;;14.96;20.83;102255.94;5019208;28;20190;-71
2021/04/25 09:32:17;;;;;;;3.10;2.63;;;;;;;14.99;21.87;102257.69;5018975;28;20171;-70
2021/04/25 09:34:42;;;;;;;3.63;3.30;;;;;;;16.86;19.22;102248.50;5019249;28;20447;-70
2021/04/25 09:37:18;;;;;;;2.70;2.50;;;;;;;14.13;21.21;102255.31;5019588;28;20447;-72
2021/04/25 09:39:58;;;;;;;3.10;2.13;;;;;;;15.58;19.81;102242.78;5019091;28;20260;-72
2021/04/25 09:42:24;;;;;;;3.63;2.47;;;;;;;14.39;20.76;102252.28;5019036;28;20414;-75
2021/04/25 09:44:50;;;;;;;2.80;2.50;;;;;;;15.13;20.93;102253.56;5019088;28;20405;-76
2021/04/25 09:47:16;;;;;;;5.20;4.70;;;;;;;19.61;17.00;102223.56;5018850;28;20542;-75
2021/04/25 09:49:42;;;;;;;4.70;2.60;;;;;;;19.56;16.19;102225.34;5019450;28;20449;-76
2021/04/25 09:52:09;;;;;;;2.53;2.33;;;;;;;18.69;17.11;102229.91;5018761;28;20199;-75
2021/04/25 09:54:34;;;;;;;3.10;2.80;;;;;;;19.51;16.26;102229.75;5018683;28;20866;-75
2021/04/25 09:57:00;;;;;;;5.40;2.67;;;;;;;19.32;16.62;102228.94;5019064;28;20504;-74
2021/04/25 09:59:26;;;;;;;3.80;3.30;;;;;;;19.13;17.81;102226.38;5018795;28;20229;-76
2021/04/25 10:02:06;;;;;;;3.10;2.80;;;;;;;16.60;20.59;102238.63;5018607;28;20422;-75
2021/04/25 10:04:36;;;;;;;3.03;2.67;;;;;;;15.39;22.08;102239.91;5018694;28;20243;-75
2021/04/25 10:07:03;;;;;;;2.93;2.73;;;;;;;14.86;22.40;102240.00;5018584;28;20897;-74
2021/04/25 10:09:29;;;;;;;3.67;2.83;;;;;;;14.09;24.35;102258.72;5018394;28;20396;-73
2021/04/25 10:11:56;;;;;;;2.97;2.77;;;;;;;14.48;25.55;102246.34;5017846;28;20651;-74
2021/04/25 10:14:25;;;;;;;2.97;2.70;;;;;;;14.00;22.35;102255.91;5018186;28;20181;-73
2021/04/25 10:16:50;;;;;;;2.93;2.70;;;;;;;13.72;22.83;102247.53;5018573;28;20418;-72
2021/04/25 10:19:16;;;;;;;2.80;2.60;;;;;;;15.86;19.24;102251.03;5018387;28;20395;-73
2021/04/25 10:21:44;;;;;;;2.73;2.53;;;;;;;16.09;17.94;102239.03;5018647;28;20488;-70
2021/04/25 10:24:10;;;;;;;3.90;3.00;;;;;;;18.78;16.24;102235.19;5017940;28;20237;-72
2021/04/25 10:26:40;;;;;;;2.83;2.57;;;;;;;15.75;17.80;102250.88;5018156;28;20469;-71
2021/04/25 10:29:07;;;;;;;2.90;2.60;;;;;;;16.67;17.84;102248.38;5017865;28;20171;-71
2021/04/25 10:31:35;;;;;;;3.27;2.30;;;;;;;18.11;16.13;102230.75;5018068;28;20453;-70
2021/04/25 10:34:06;;;;;;;5.07;2.93;;;;;;;18.08;16.66;102221.06;5017378;28;20421;-72
2021/04/25 10:36:47;;;;;;;2.90;2.70;;;;;;;17.79;17.32;102234.13;5018047;28;20399;-72
2021/04/25 10:39:38;;;;;;;2.83;2.63;;;;;;;16.91;18.61;102245.06;5017965;28;20396;-71
2021/04/25 10:42:16;;;;;;;2.60;2.37;;;;;;;12.29;23.12;102266.75;5018145;28;20414;-70
2021/04/25 10:44:59;;;;;;;3.13;2.77;;;;;;;15.33;20.20;102255.59;5018157;28;20414;-71
2021/04/25 10:47:26;;;;;;;4.03;3.00;;;;;;;18.18;17.35;102243.06;5018008;28;20451;-70
2021/04/25 10:49:52;;;;;;;4.93;2.80;;;;;;;18.99;15.16;102228.16;5001168;28;20392;-70
2021/04/25 10:52:31;;;;;;;3.40;2.87;;;;;;;17.08;16.04;102244.31;5017917;28;20483;-71
2021/04/25 10:55:12;;;;;;;4.00;2.97;;;;;;;19.27;15.07;102233.38;5018534;28;20392;-71
2021/04/25 10:57:53;;;;;;;3.23;2.93;;;;;;;19.22;15.24;102232.53;5021146;28;20392;-71
2021/04/25 11:00:33;;;;;;;4.10;3.30;;;;;;;19.97;14.74;102218.09;5018137;28;20427;-71
2021/04/25 11:03:01;;;;;;;2.90;2.70;;;;;;;19.05;15.60;102228.16;5018159;28;20388;-71
2021/04/25 11:05:42;;;;;;;2.87;2.67;;;;;;;18.32;15.81;102235.16;5017376;28;20422;-72
2021/04/25 11:08:14;;;;;;;3.10;2.80;;;;;;;16.14;18.62;102242.59;5018204;28;20563;-73
2021/04/25 11:10:56;;;;;;;2.90;2.70;;;;;;;16.20;18.36;102243.53;5018255;28;20449;-73
2021/04/25 11:13:36;;;;;;;3.10;2.90;;;;;;;16.53;17.79;102242.09;5018523;28;20706;-71
2021/04/25 11:16:02;;;;;;;2.43;2.23;;;;;;;17.87;15.98;102234.16;5018098;28;20425;-70
2021/04/25 11:19:04;;;;;;;3.70;2.83;;;;;;;17.33;16.90;102234.78;5018014;28;20408;-70
2021/04/25 11:21:34;;;;;;;4.77;2.50;;;;;;;18.38;17.02;102229.91;5015325;28;20183;-70
2021/04/25 11:24:03;;;;;;;5.60;3.17;;;;;;;19.50;14.56;102220.09;5018258;28;20466;-70
2021/04/25 11:26:37;;;;;;;2.73;2.40;;;;;;;17.13;15.94;102224.13;5021548;28;20450;-70